Date,TemperatureHighF,TemperatureAvgF,TemperatureLowF,DewpointHighF,DewpointAvgF,DewpointLowF,HumidityHigh,HumidityAvg,HumidityLow,PressureMaxIn,PressureMinIn,WindSpeedMaxMPH,WindSpeedAvgMPH,GustSpeedMaxMPH,PrecipitationSumIn
2013-4-16,59.4,52.5,51.8,52.0,45.6,-99.9,99,85,60,29.94,29.85,6,-32,0,0.06
2013-4-17,61.2,47.4,28.9,50.8,33.3,27.7,99,61,33,30.15,29.91,8,3,0,0.00
2013-4-18,60.4,43.4,24.8,35.8,29.4,24.6,99,64,38,30.18,29.81,10,2,0,0.00
2013-4-19,72.3,63.4,56.7,59.9,56.6,52.9,87,79,65,29.71,29.40,10,4,0,0.00
2013-4-20,51.8,44.6,35.8,40.1,31.0,19.0,99,62,38,30.12,29.56,15,4,0,0.07
2013-4-21,50.4,36.4,28.2,22.2,18.2,14.8,74,50,24,30.50,30.18,7,4,0,0.00
2013-4-22,54.1,35.4,19.9,29.1,21.8,15.8,99,63,27,30.53,30.28,10,2,0,0.00
2013-4-23,42.1,35.1,21.7,35.8,30.5,21.5,99,84,69,30.27,29.97,5,1,0,0.00
2013-4-24,68.5,55.5,34.5,45.3,41.9,34.2,99,63,42,29.73,29.42,4,2,0,0.00
2013-4-25,46.2,44.8,44.1,32.2,32.0,31.9,62,61,58,29.81,29.76,5,4,0,0.00
2013-4-26,23.2,23.2,23.2,23.0,23.0,23.0,99,99,99,30.13,30.13,0,0,0,0.00
2013-4-27,55.4,55.4,55.4,35.5,35.5,35.5,47,47,47,30.10,30.10,4,4,0,0.00
2013-4-29,68.9,51.6,35.8,41.5,37.7,34.8,97,65,34,29.99,29.82,5,1,0,0.00
2013-4-30,47.5,47.5,47.5,40.7,40.7,40.7,77,77,77,29.98,29.98,0,0,0,0.00
2013-5-1,67.1,40.5,31.3,37.0,32.8,31.1,99,82,33,30.20,30.14,0,0,0,0.00
2013-5-3,72.5,60.8,42.6,43.2,41.3,37.9,94,52,34,30.17,30.01,6,2,0,0.00
2013-5-4,76.5,55.6,32.0,47.6,38.9,31.0,99,61,24,30.06,29.88,5,2,0,0.00
2013-5-5,78.8,57.7,29.1,39.2,35.4,28.9,99,50,22,30.01,29.82,5,2,0,0.00
2013-5-6,78.1,49.0,30.2,44.7,36.5,29.5,99,72,18,29.95,29.82,7,1,0,0.00
2013-5-7,77.4,66.3,35.1,44.4,40.4,34.8,99,45,27,29.83,29.75,4,2,0,0.00
2013-5-8,40.6,40.6,40.6,40.3,40.3,40.3,99,99,99,29.85,29.85,0,0,0,0.00
2013-5-9,55.2,55.2,55.2,54.9,54.9,54.9,99,99,99,29.65,29.65,0,0,0,0.00
2013-5-25,33.3,22.1,33.1,33.0,-11.4,-99.9,99,66,99,29.57,29.56,0,-333,0,0.00
2013-5-26,52.3,44.0,34.9,44.1,39.4,34.6,99,85,64,29.87,29.53,8,3,0,0.33
2013-5-27,66.9,50.0,29.1,43.9,36.8,28.9,99,67,29,30.02,29.83,10,2,0,0.00
2013-5-28,74.8,52.4,30.6,48.4,39.4,30.4,99,68,31,30.08,29.89,5,1,0,0.00
2013-5-29,59.4,56.8,52.5,58.5,56.1,52.2,99,98,94,29.90,29.78,4,0,0,0.29
2013-5-30,84.0,68.4,53.4,66.2,61.3,53.1,99,81,50,29.89,29.79,6,2,0,0.00
2013-5-31,78.1,64.0,52.5,66.7,59.9,52.2,99,88,65,29.91,29.85,2,0,0,0.00
2013-6-1,71.8,59.0,55.8,70.3,58.6,55.5,99,99,95,29.77,29.72,0,0,0,0.00
2013-6-2,90.5,68.6,59.7,71.1,64.7,59.4,99,90,51,29.65,29.44,5,1,0,0.37
2013-6-3,79.3,64.1,51.4,64.5,56.0,47.0,99,79,38,29.63,29.46,7,1,0,0.01
2013-6-4,65.7,53.4,39.9,46.4,43.6,39.6,99,72,44,29.91,29.62,9,2,0,0.00
2013-6-5,73.0,53.7,37.0,47.2,41.8,36.7,99,70,30,30.04,29.86,4,1,0,0.00
2013-6-6,74.5,58.4,47.3,51.8,47.3,40.4,99,72,38,30.03,29.84,7,1,0,0.00
2013-6-8,66.4,62.0,57.7,62.5,59.6,57.1,98,92,81,29.82,29.66,2,0,0,0.00
2013-6-9,74.8,62.2,52.7,60.0,55.9,52.4,99,82,50,29.97,29.81,4,1,0,0.00
2013-6-10,70.5,54.3,42.8,61.2,51.9,42.5,99,93,59,30.04,29.81,5,0,0,0.14
2013-6-11,62.8,56.6,53.2,58.4,55.5,52.9,99,96,81,29.77,29.35,6,1,0,0.92
2013-6-12,66.0,57.7,53.6,56.7,54.4,53.1,99,90,65,29.62,29.35,6,2,0,0.12
2013-6-13,68.7,54.4,46.9,58.5,52.2,46.6,99,93,57,29.64,29.49,2,0,0,0.22
2013-6-14,77.7,61.6,52.2,59.3,53.0,47.1,99,79,37,29.58,29.46,6,1,0,0.00
2013-6-15,75.4,58.3,41.4,56.9,46.0,41.1,99,70,33,29.74,29.60,11,1,0,0.00
2013-6-16,73.4,56.8,41.5,60.9,51.5,41.2,99,85,51,29.77,29.48,5,0,0,0.08
2013-6-17,79.3,61.9,46.9,65.3,55.6,46.6,99,83,47,29.68,29.55,6,1,0,0.01
2013-6-18,63.7,58.4,50.2,58.4,55.7,49.9,99,91,77,29.80,29.68,3,0,0,0.08
2013-6-19,73.0,55.4,44.2,54.2,47.3,43.1,99,79,38,30.01,29.73,8,1,0,0.00
2013-6-20,77.5,55.3,36.7,54.2,45.2,36.4,99,75,33,30.10,29.95,5,1,0,0.00
2013-6-21,82.2,57.7,42.6,59.3,50.1,42.3,99,80,39,30.07,29.98,4,0,0,0.00
2013-6-22,81.5,63.5,51.1,65.8,58.5,50.8,99,85,59,30.05,29.88,2,0,0,0.01
2013-6-23,90.0,72.0,61.5,74.2,68.1,61.2,99,89,60,29.93,29.73,3,1,0,0.45
2013-6-24,89.2,71.2,60.8,73.8,68.2,60.5,99,92,59,29.79,29.69,4,0,0,0.03
2013-6-25,90.0,72.1,61.0,71.8,67.4,60.7,99,88,51,29.72,29.52,4,1,0,0.23
2013-6-26,76.6,67.4,61.3,72.1,66.4,61.0,99,97,83,29.66,29.51,0,0,0,0.09
2013-6-27,78.3,67.8,61.7,70.1,65.7,61.4,99,94,76,29.65,29.53,4,1,0,0.00
2013-6-28,72.5,63.7,58.6,67.7,62.0,57.9,99,94,83,29.41,29.24,7,2,0,0.46
2013-6-29,81.5,69.5,62.8,71.0,66.8,62.5,99,92,67,29.43,29.27,3,0,0,0.13
2013-6-30,82.0,64.6,59.0,68.6,62.2,58.7,99,93,59,29.62,29.48,5,0,0,0.00
2013-7-1,77.5,72.5,65.8,71.9,70.0,65.5,99,92,82,29.84,29.74,2,0,0,0.07
2013-7-2,77.2,69.1,62.4,74.0,67.8,62.1,99,96,89,30.00,29.85,4,0,0,0.54
2013-7-3,87.8,68.1,60.8,74.5,65.7,60.5,99,93,64,30.00,29.89,4,0,0,0.10
2013-7-4,90.1,69.9,64.4,75.8,66.9,64.1,99,92,63,30.02,29.87,2,0,0,0.00
2013-7-5,90.3,77.4,64.2,74.6,71.0,63.9,99,82,57,29.97,29.81,4,1,0,0.00
2013-7-6,88.9,75.3,63.9,72.9,68.2,63.3,98,80,51,29.86,29.79,8,2,0,0.05
2013-7-7,82.6,69.8,59.2,74.9,65.4,58.9,99,87,63,29.85,29.68,2,0,0,0.00
2013-7-8,86.2,75.3,68.7,72.0,70.7,68.4,99,87,60,29.82,29.71,3,0,0,0.34
2013-7-9,75.4,69.2,65.3,69.2,67.1,65.0,99,93,81,29.91,29.82,3,1,0,0.00
2013-7-10,72.7,68.9,66.4,72.1,68.1,65.7,99,97,95,29.83,29.54,2,0,0,0.19
2013-7-11,76.8,67.1,58.3,72.8,65.6,57.7,99,95,65,29.80,29.53,4,0,0,0.01
2013-7-12,79.7,61.3,54.3,64.5,57.4,54.0,99,90,51,29.95,29.79,5,0,0,0.00
2013-7-13,66.4,58.3,54.5,63.0,57.6,54.2,99,98,88,30.10,30.02,2,0,0,0.00
2013-7-14,76.5,70.3,67.5,71.3,68.4,66.6,99,94,84,30.13,30.04,2,0,0,0.00
2013-7-15,91.2,73.1,61.9,73.6,67.2,61.6,99,84,51,30.05,29.92,4,1,0,0.00
2013-7-16,87.8,67.8,59.4,70.6,63.8,59.1,99,89,54,30.03,29.93,4,1,0,0.00
2013-7-17,88.5,69.7,59.5,72.3,65.3,59.2,99,88,59,30.02,29.90,4,0,0,0.00
2013-7-18,90.0,83.2,70.2,73.2,71.2,69.7,99,69,53,29.84,29.72,4,2,0,0.00
2013-7-19,82.4,73.3,65.7,77.4,71.7,65.4,99,95,81,29.74,29.52,2,0,0,0.14
2013-7-20,83.1,74.5,63.1,72.4,68.0,62.8,99,82,62,29.55,29.44,5,1,0,0.07
2013-7-21,77.4,65.7,57.7,64.8,61.6,57.4,99,88,60,29.74,29.64,3,0,0,0.00
2013-7-22,77.7,62.8,53.2,68.8,60.4,52.9,99,93,73,29.86,29.66,6,1,0,0.01
2013-7-23,79.0,65.5,62.8,69.6,64.7,62.5,99,97,73,29.64,29.32,3,0,0,1.87
2013-7-24,75.4,64.7,53.8,69.3,60.8,47.4,99,88,63,29.79,29.36,6,1,0,0.00
2013-7-25,68.2,53.6,41.4,61.0,49.8,41.1,99,89,60,29.92,29.80,2,0,0,0.00
2013-7-26,70.5,62.9,57.2,61.7,59.4,56.9,99,89,73,29.89,29.74,4,1,0,0.00
2013-7-27,82.2,60.2,47.5,64.6,54.5,47.2,99,85,43,29.87,29.76,4,1,0,0.00
2013-7-28,73.2,60.0,53.1,68.4,58.6,52.8,99,96,80,29.83,29.71,6,0,0,0.00
2013-7-29,68.7,62.1,56.7,63.7,60.2,56.4,99,94,84,29.90,29.79,0,0,0,0.00
2013-7-30,77.4,59.6,51.3,62.9,55.8,51.0,99,89,46,29.93,29.82,9,1,0,0.00
2013-7-31,80.2,59.2,48.6,66.4,55.1,48.3,99,89,42,29.97,29.79,4,0,0,0.00
2013-8-1,81.3,65.8,49.8,65.5,59.4,49.5,99,82,55,29.85,29.62,4,1,0,0.29
2013-8-2,68.5,66.8,63.3,66.0,65.1,63.0,99,94,91,29.61,29.58,3,0,0,0.03
2013-8-3,77.7,60.7,50.2,62.8,56.4,49.9,99,88,53,29.66,29.53,5,1,0,0.13
2013-8-4,72.3,57.1,46.9,61.7,54.0,46.6,99,91,66,29.73,29.57,3,0,0,0.09
2013-8-5,71.8,55.6,46.4,52.8,48.2,35.4,99,81,27,29.90,29.68,8,1,0,0.00
2013-8-6,81.0,56.7,39.4,61.2,48.3,39.1,99,79,35,29.95,29.85,3,0,0,0.00
2013-8-7,78.3,60.3,48.0,62.1,54.6,47.7,99,84,49,30.00,29.82,5,1,0,0.00
2013-8-8,86.4,70.4,61.9,71.9,65.7,60.6,98,87,59,29.85,29.74,4,1,0,0.02
2013-8-9,75.6,70.4,65.3,72.2,69.2,65.0,99,96,87,29.79,29.51,3,0,0,0.36
2013-8-10,77.2,66.0,54.9,65.7,58.5,51.7,99,80,42,29.82,29.56,7,2,0,0.00
2013-8-11,77.7,58.7,43.0,60.9,51.7,42.7,99,82,42,29.87,29.77,3,1,0,0.00
2013-8-12,78.3,57.6,46.4,60.5,53.3,46.1,99,88,48,29.86,29.69,4,0,0,0.00
2013-8-13,69.8,60.9,52.3,67.8,60.3,52.0,99,98,92,29.70,29.45,3,0,0,0.83
2013-8-14,68.4,58.8,49.1,59.8,54.8,48.6,99,88,58,29.79,29.44,8,1,0,0.00
2013-8-15,72.0,52.4,39.7,55.7,48.4,39.4,99,89,50,29.92,29.74,3,1,0,0.00
2013-8-16,75.9,55.9,41.5,60.8,50.4,41.2,99,85,47,30.00,29.88,5,0,0,0.00
2013-8-17,77.7,58.1,45.7,62.3,53.5,45.4,99,88,47,30.11,30.00,5,1,0,0.00
2013-8-18,77.0,58.5,47.1,66.9,55.2,46.8,99,90,59,30.11,29.87,2,0,0,0.00
2013-8-19,78.1,59.8,48.9,62.7,56.4,48.6,99,90,56,29.90,29.75,4,0,0,0.00
2013-8-20,74.3,56.5,49.6,64.1,54.7,49.3,99,95,70,29.89,29.78,3,0,0,0.00
2013-8-21,79.5,59.1,51.4,66.2,56.7,51.1,99,93,64,29.98,29.91,3,0,0,0.00
2013-8-25,56.5,56.5,56.5,53.3,53.3,53.3,89,89,89,30.18,30.18,0,0,0,0.00
2013-8-26,60.1,60.1,60.1,59.8,59.8,59.8,99,99,99,29.82,29.82,0,0,0,0.00